LiveATC.Net - Listen to live air traffic control over the Internet!


ICAO: KCNI  IATA: CNI   Airport: Cherokee County Airport
City: Canton   State/Province: Georgia
Country: United States   Continent: North America
KCNI METAR Weather: KCNI 081215Z AUTO 00000KT 10SM OVC024 10/04 A3028 RMK AO2 T00970041
KCNI ADS-B Flight Tracking  (ADSBExchange)
KCNI Flight Activity (FlightAware)
KCNI Airport Info   (iFlightPlanner)
KCNI VFR Sectional Chart   (iFlightPlanner) 
KCNI IFR Low Altitude Chart   (iFlightPlanner) 
KCNI IFR High Altitude Chart   (iFlightPlanner) 

KWDR/KCVC/KCNI CTAF
Feed Status: UP   Listeners: 0
Listen in your browser - HTML5 player (in browser, HTML5)
Click here to listen with your own player (launches your MP3 player)
Archive Access: KWDR/KCVC/KCNI CTAF
FacilityFrequency
KWDR/KCVC/KCNI CTAF123.000

NOTICE

Unauthorized use prohibited. See LiveATC.net Terms of Service


Airport/ARTCC Code
Frequency Search
(e.g., 124.400, 128.75)
Site-wide search
 


Browse Feeds
Top 50 Feeds
HF Oceanic Feeds
Coverage Map
Bad Weather Areas

LiveATC FAQ
Offer LiveATC feed
Contact LiveATC.net
Press Inquiries

LiveATC on iPhone
LiveATC on Android

LiveATC Mobile
(Mobile browser)

ATC Audio Archives
Interesting Recordings

LiveATC Forums


Home Page
About LiveATC.net


Terms of Use
Privacy Policy

AIRMETs/SIGMETs

FAA Airport Status
NAS Status
Arrival Demand


Server Software By:
Icecast.org
Liquidsoap